Time;durP1;ratioP1;P1;durP2;ratioP2;P2;SDS_P1;SDS_P2;PMS_P1;PMS_P2;Temp;Humidity;BMP_temperature;BMP_pressure;BME280_temperature;BME280_humidity;BME280_pressure;Samples;Min_cycle;Max_cycle;Signal;HPM_P1;HPM_P2
2021/11/17 02:28:12;;;;;;;1.40;1.30;;;;;;;1.97;100.00;100906.56;5074020;28;20513;-67
2021/11/17 02:30:51;;;;;;;1.87;1.20;;;;;;;2.05;100.00;100903.84;5073777;28;20063;-67
2021/11/17 02:33:41;;;;;;;2.13;1.40;;;;;;;1.99;100.00;100893.72;5073878;28;20050;-67
2021/11/17 02:36:33;;;;;;;2.05;1.40;;;;;;;2.04;100.00;100895.31;5074112;28;20054;-67
2021/11/17 02:39:23;;;;;;;1.33;1.00;;;;;;;2.02;100.00;100886.78;5073737;28;20143;-67
2021/11/17 02:42:08;;;;;;;1.90;1.30;;;;;;;2.02;100.00;100888.50;5073486;28;20053;-67
2021/11/17 02:44:51;;;;;;;2.38;1.40;;;;;;;1.93;100.00;100885.25;5073836;28;20048;-67
2021/11/17 02:47:37;;;;;;;2.30;1.27;;;;;;;2.05;100.00;100884.16;5073593;28;20052;-67
2021/11/17 02:50:26;;;;;;;2.15;1.42;;;;;;;2.13;100.00;100884.03;5073651;28;20055;-67
2021/11/17 02:53:09;;;;;;;1.30;1.20;;;;;;;2.08;100.00;100880.69;5073337;28;20052;-67
2021/11/17 02:55:51;;;;;;;4.53;1.55;;;;;;;2.00;100.00;100882.56;5073281;28;20056;-67
2021/11/17 02:58:47;;;;;;;1.52;1.30;;;;;;;2.01;100.00;100881.69;5073355;28;20379;-67
2021/11/17 03:01:30;;;;;;;1.30;1.20;;;;;;;2.03;100.00;100875.66;5073083;28;20055;-67
2021/11/17 03:04:08;;;;;;;1.15;1.05;;;;;;;2.04;100.00;100885.03;5073139;28;20408;-67
2021/11/17 03:06:56;;;;;;;1.40;1.30;;;;;;;1.97;100.00;100880.88;5073410;28;20205;-67
2021/11/17 03:09:39;;;;;;;1.30;1.20;;;;;;;2.11;100.00;100878.94;5071056;28;20044;-67
2021/11/17 03:12:35;;;;;;;0.90;0.90;;;;;;;2.08;100.00;100879.00;5073057;28;20063;-67
2021/11/17 03:15:31;;;;;;;2.53;1.30;;;;;;;2.02;100.00;100879.09;5070330;28;20053;-67
2021/11/17 03:18:08;;;;;;;;;;;;;;;2.02;100.00;100883.38;5073311;28;20044;-67
2021/11/17 03:20:54;;;;;;;1.35;1.25;;;;;;;1.94;100.00;100866.41;5072719;28;19921;-67
2021/11/17 03:23:34;;;;;;;1.27;1.17;;;;;;;2.08;100.00;100867.84;5072448;28;20045;-67
2021/11/17 03:26:14;;;;;;;2.25;1.30;;;;;;;2.10;100.00;100866.13;5072897;28;20054;-67
2021/11/17 03:29:07;;;;;;;1.50;1.40;;;;;;;2.07;100.00;100853.34;5072687;28;20055;-66
2021/11/17 03:31:57;;;;;;;1.38;1.20;;;;;;;2.10;100.00;100854.13;5072687;28;20048;-67
2021/11/17 03:34:48;;;;;;;1.38;1.27;;;;;;;2.07;100.00;100845.66;5072659;28;20048;-67
2021/11/17 03:37:40;;;;;;;2.15;1.50;;;;;;;2.16;100.00;100842.91;5072226;28;20052;-67
2021/11/17 03:40:24;;;;;;;2.20;1.52;;;;;;;2.16;100.00;100845.50;5072796;28;20130;-67
2021/11/17 03:43:08;;;;;;;2.03;1.17;;;;;;;2.13;100.00;100845.53;5072660;28;20402;-67
2021/11/17 03:45:52;;;;;;;1.73;1.55;;;;;;;2.07;100.00;100846.50;5072751;28;20048;-67
2021/11/17 03:48:33;;;;;;;1.27;1.15;;;;;;;2.12;100.00;100843.84;5072176;28;20063;-67
2021/11/17 03:51:20;;;;;;;1.52;1.42;;;;;;;2.05;100.00;100837.97;5072177;28;20045;-67
2021/11/17 03:54:01;;;;;;;2.08;1.33;;;;;;;2.02;100.00;100830.31;5072403;28;20049;-67
2021/11/17 03:56:46;;;;;;;3.63;1.50;;;;;;;2.12;100.00;100839.53;5072367;28;20060;-67
2021/11/17 03:59:27;;;;;;;1.83;1.30;;;;;;;2.09;100.00;100837.03;5071921;28;20483;-67
2021/11/17 04:02:09;;;;;;;0.93;0.80;;;;;;;2.07;100.00;100837.94;5072312;28;20048;-67
2021/11/17 04:04:56;;;;;;;2.03;1.20;;;;;;;1.93;100.00;100839.06;5072154;28;20055;-67
2021/11/17 04:07:47;;;;;;;1.33;1.23;;;;;;;1.91;100.00;100827.97;5072247;28;20048;-67
2021/11/17 04:10:48;;;;;;;2.20;1.38;;;;;;;1.96;100.00;100828.72;5071868;28;20052;-67
2021/11/17 04:13:30;;;;;;;0.80;0.80;;;;;;;2.02;100.00;100832.88;5071605;28;20052;-67
2021/11/17 04:16:24;;;;;;;1.23;1.13;;;;;;;1.94;100.00;100827.06;5072027;28;20048;-67
2021/11/17 04:19:02;;;;;;;1.83;1.50;;;;;;;1.98;100.00;100828.72;5072273;28;20055;-67
2021/11/17 04:21:46;;;;;;;1.45;1.35;;;;;;;2.04;100.00;100826.03;5072116;28;20537;-67
2021/11/17 04:24:30;;;;;;;1.50;1.27;;;;;;;2.01;100.00;100822.69;5071523;28;20479;-67
2021/11/17 04:27:18;;;;;;;1.92;1.52;;;;;;;1.99;100.00;100816.72;5072244;28;20056;-67
2021/11/17 04:30:11;;;;;;;2.30;1.58;;;;;;;1.89;100.00;100811.75;5071920;28;20052;-67
2021/11/17 04:32:54;;;;;;;3.97;1.40;;;;;;;2.01;100.00;100812.41;5070072;28;20068;-67
2021/11/17 04:35:55;;;;;;;2.03;1.50;;;;;;;1.95;100.00;100808.22;5071550;28;20055;-68
2021/11/17 04:38:55;;;;;;;2.10;1.45;;;;;;;2.01;100.00;100802.97;5071814;28;20060;-67
2021/11/17 04:41:50;;;;;;;1.25;1.15;;;;;;;2.08;100.00;100798.56;5071595;28;20438;-67
2021/11/17 04:44:37;;;;;;;2.33;1.35;;;;;;;2.02;100.00;100799.53;5071778;28;20076;-67
2021/11/17 04:47:13;;;;;;;;;;;;;;;2.02;100.00;100793.56;5072448;28;20055;-67
2021/11/17 04:49:53;;;;;;;1.20;1.10;;;;;;;2.05;100.00;100793.50;5071653;28;19986;-68
2021/11/17 04:52:48;;;;;;;1.08;1.00;;;;;;;2.11;100.00;100794.22;5071741;28;20414;-67
2021/11/17 04:55:42;;;;;;;3.38;1.40;;;;;;;2.12;100.00;100788.22;5068163;28;20406;-67
2021/11/17 04:58:26;;;;;;;1.40;1.23;;;;;;;2.11;100.00;100788.25;5065188;28;20045;-67
2021/11/17 05:01:13;;;;;;;1.05;0.95;;;;;;;2.05;100.00;100784.06;5071592;28;20059;-67
2021/11/17 05:03:45;;;;;;;;;;;;;;;2.04;100.00;100781.53;5071977;28;20053;-67
2021/11/17 05:06:33;;;;;;;1.30;1.00;;;;;;;2.01;100.00;100789.31;5071264;28;20362;-67
2021/11/17 05:09:10;;;;;;;2.35;1.27;;;;;;;1.95;100.00;100779.97;5071804;28;20067;-67
2021/11/17 05:11:49;;;;;;;2.93;1.13;;;;;;;2.07;100.00;100776.34;5071587;28;20491;-67
2021/11/17 05:14:24;;;;;;;2.13;1.10;;;;;;;2.05;100.00;100773.81;5075219;28;20056;-70
2021/11/17 05:17:04;;;;;;;1.60;1.20;;;;;;;2.00;100.00;100779.91;5075203;28;20416;-68
2021/11/17 05:19:38;;;;;;;2.88;1.55;;;;;;;1.98;100.00;100769.69;5075215;28;20052;-68
2021/11/17 05:22:20;;;;;;;1.58;1.33;;;;;;;2.05;100.00;100760.13;5075105;28;20059;-67
2021/11/17 05:25:00;;;;;;;1.40;1.30;;;;;;;1.98;100.00;100768.81;5074739;28;20483;-66
2021/11/17 05:27:41;;;;;;;2.22;1.52;;;;;;;2.13;100.00;100769.38;5074780;28;20044;-67
2021/11/17 05:30:31;;;;;;;2.97;1.40;;;;;;;2.06;100.00;100760.09;5075312;28;20053;-67
2021/11/17 05:33:12;;;;;;;1.80;1.55;;;;;;;2.08;100.00;100750.66;5074832;28;20040;-67
2021/11/17 05:35:52;;;;;;;2.20;1.58;;;;;;;2.10;100.00;100751.44;5074942;28;20633;-67
2021/11/17 05:38:30;;;;;;;1.50;1.38;;;;;;;2.16;100.00;100746.22;5074478;28;20101;-67
2021/11/17 05:41:15;;;;;;;3.75;1.60;;;;;;;2.12;100.00;100754.00;5075074;28;20048;-66
2021/11/17 05:43:56;;;;;;;2.70;1.80;;;;;;;2.11;100.00;100750.59;5074698;28;20398;-68
2021/11/17 05:46:35;;;;;;;2.50;1.85;;;;;;;2.18;100.00;100741.91;5074431;28;20062;-67
2021/11/17 05:49:14;;;;;;;5.03;1.90;;;;;;;2.08;100.00;100744.66;5074582;28;20406;-67
2021/11/17 05:52:02;;;;;;;4.85;1.95;;;;;;;2.09;100.00;100738.66;5074856;28;20052;-67
2021/11/17 05:54:44;;;;;;;3.58;1.83;;;;;;;2.10;100.00;100738.63;5074224;28;20057;-68
2021/11/17 05:57:23;;;;;;;3.53;1.67;;;;;;;2.14;100.00;100740.25;5074443;28;20048;-68
2021/11/17 06:00:15;;;;;;;3.38;1.80;;;;;;;2.11;100.00;100745.47;5074383;28;20055;-67
2021/11/17 06:02:48;;;;;;;2.00;1.45;;;;;;;2.07;100.00;100745.53;5071427;28;20048;-68
2021/11/17 06:05:15;;;;;;;6.45;1.85;;;;;;;2.14;100.00;100744.56;5074233;28;20045;-69
2021/11/17 06:07:41;;;;;;;2.80;1.67;;;;;;;2.23;100.00;100743.50;5074207;28;20410;-68
2021/11/17 06:10:13;;;;;;;3.50;1.80;;;;;;;2.21;100.00;100737.56;5074253;28;20048;-69
2021/11/17 06:12:41;;;;;;;1.88;1.40;;;;;;;2.30;100.00;100733.09;5074274;28;20056;-69
2021/11/17 06:15:08;;;;;;;;;;;;;;;2.29;100.00;100733.13;5074872;28;20047;-69
2021/11/17 06:17:35;;;;;;;2.55;1.23;;;;;;;2.27;100.00;100732.31;5073870;28;19939;-69
2021/11/17 06:20:04;;;;;;;;;;;;;;;2.25;100.00;100729.75;5074761;28;20406;-71
2021/11/17 06:22:33;;;;;;;2.92;1.63;;;;;;;2.20;100.00;100726.44;5073895;28;19995;-69
2021/11/17 06:25:05;;;;;;;2.80;1.50;;;;;;;2.23;100.00;100731.50;5073630;28;20052;-69
2021/11/17 06:27:35;;;;;;;1.75;1.50;;;;;;;2.32;100.00;100735.63;5073604;28;20044;-69
2021/11/17 06:30:04;;;;;;;4.78;1.30;;;;;;;2.32;100.00;100731.34;5074176;28;20044;-68
2021/11/17 06:32:31;;;;;;;3.25;1.15;;;;;;;2.34;100.00;100731.31;5073803;28;20135;-68
2021/11/17 06:35:00;;;;;;;1.80;1.23;;;;;;;2.31;100.00;100727.09;5074078;28;20049;-69
2021/11/17 06:37:29;;;;;;;2.83;1.50;;;;;;;2.35;100.00;100727.84;5073805;28;20048;-69
2021/11/17 06:39:58;;;;;;;1.70;1.10;;;;;;;2.36;100.00;100724.41;5073648;28;20495;-68
2021/11/17 06:42:27;;;;;;;1.45;1.08;;;;;;;2.39;100.00;100729.50;5073321;28;20048;-68
2021/11/17 06:44:56;;;;;;;1.67;1.10;;;;;;;2.40;100.00;100726.03;5073794;28;20048;-68
2021/11/17 06:47:24;;;;;;;1.65;1.17;;;;;;;2.49;100.00;100722.41;5073294;28;20053;-68
2021/11/17 06:49:53;;;;;;;1.80;1.27;;;;;;;2.49;100.00;100719.84;5073302;28;20423;-68
2021/11/17 06:52:20;;;;;;;3.40;1.00;;;;;;;2.46;100.00;100718.19;5073403;28;20056;-68
2021/11/17 06:54:47;;;;;;;1.00;0.90;;;;;;;2.45;100.00;100723.38;5073325;28;20414;-68
2021/11/17 06:57:14;;;;;;;2.33;1.25;;;;;;;2.50;100.00;100716.41;5073388;28;20055;-68
2021/11/17 06:59:41;;;;;;;2.63;1.10;;;;;;;2.51;100.00;100707.81;5073489;28;20063;-68
2021/11/17 07:02:10;;;;;;;2.72;1.02;;;;;;;2.49;100.00;100713.00;5073265;28;20415;-68
2021/11/17 07:04:37;;;;;;;1.15;1.05;;;;;;;2.50;100.00;100714.69;5073349;28;20052;-69
2021/11/17 07:07:06;;;;;;;1.70;1.30;;;;;;;2.52;100.00;100707.78;5073288;28;20045;-69
2021/11/17 07:09:34;;;;;;;3.42;1.17;;;;;;;2.53;100.00;100711.19;5073385;28;20053;-69
2021/11/17 07:12:00;;;;;;;;;;;;;;;2.57;100.00;100707.69;5073196;28;20517;-69
2021/11/17 07:14:27;;;;;;;1.40;0.88;;;;;;;2.52;100.00;100709.53;5073034;28;19920;-69
2021/11/17 07:16:55;;;;;;;1.10;1.00;;;;;;;2.56;100.00;100708.56;5073284;28;20413;-69
2021/11/17 07:19:25;;;;;;;1.15;1.05;;;;;;;2.54;100.00;100708.59;5072613;28;20414;-69
2021/11/17 07:21:53;;;;;;;1.20;1.10;;;;;;;2.59;100.00;100709.34;5072853;28;20052;-69
2021/11/17 07:24:21;;;;;;;1.20;1.10;;;;;;;2.56;100.00;100706.00;5072351;28;20044;-69
2021/11/17 07:26:48;;;;;;;2.53;1.08;;;;;;;2.58;100.00;100696.53;5072742;28;20139;-69
2021/11/17 07:29:16;;;;;;;;;;;;;;;2.58;100.00;100701.66;5073203;28;20041;-69
2021/11/17 07:31:43;;;;;;;1.70;1.15;;;;;;;2.59;100.00;100699.06;5072803;28;19920;-68
2021/11/17 07:34:11;;;;;;;1.73;1.10;;;;;;;2.56;100.00;100693.97;5072272;28;20058;-68
2021/11/17 07:36:40;;;;;;;1.63;1.13;;;;;;;2.62;100.00;100700.72;5072060;28;20056;-68
2021/11/17 07:39:07;;;;;;;0.70;0.70;;;;;;;2.60;100.00;100699.91;5072861;28;20070;-68
2021/11/17 07:41:34;;;;;;;1.23;0.98;;;;;;;2.57;100.00;100702.56;5072381;28;20506;-69
2021/11/17 07:44:01;;;;;;;1.30;1.08;;;;;;;2.61;100.00;100696.44;5072304;28;20379;-68
2021/11/17 07:46:28;;;;;;;1.02;0.85;;;;;;;2.64;100.00;100698.09;5072435;28;20048;-68
2021/11/17 07:48:57;;;;;;;0.88;0.88;;;;;;;2.61;100.00;100692.16;5072689;28;20052;-68
2021/11/17 07:51:24;;;;;;;1.80;1.02;;;;;;;2.74;100.00;100691.88;5072208;28;20049;-68
2021/11/17 07:53:52;;;;;;;1.00;0.93;;;;;;;2.66;100.00;100691.22;5072616;28;20071;-68
2021/11/17 07:56:19;;;;;;;1.83;0.90;;;;;;;2.70;100.00;100691.13;5071899;28;20066;-68
2021/11/17 07:58:46;;;;;;;1.35;1.25;;;;;;;2.62;100.00;100687.88;5072386;28;20048;-69
2021/11/17 08:01:14;;;;;;;;;;;;;;;2.61;100.00;100684.44;5072710;28;20121;-68
2021/11/17 08:03:43;;;;;;;0.98;0.98;;;;;;;2.66;100.00;100683.50;5071981;28;19925;-68
2021/11/17 08:06:12;;;;;;;3.17;2.08;;;;;;;2.64;100.00;100680.97;5071820;28;20457;-68
2021/11/17 08:08:40;;;;;;;1.52;0.82;;;;;;;2.64;100.00;100682.69;5072101;28;20487;-68
2021/11/17 08:11:11;;;;;;;1.10;1.00;;;;;;;2.60;100.00;100680.19;5072025;28;20056;-68
2021/11/17 08:13:38;;;;;;;2.53;1.40;;;;;;;2.73;100.00;100679.91;5071705;28;20064;-69
2021/11/17 08:16:06;;;;;;;1.75;1.17;;;;;;;2.76;100.00;100683.25;5072245;28;20048;-68
2021/11/17 08:18:34;;;;;;;1.00;1.00;;;;;;;2.84;100.00;100675.34;5071774;28;20063;-68
2021/11/17 08:21:01;;;;;;;0.95;0.95;;;;;;;2.81;100.00;100673.69;5071894;28;20491;-68
2021/11/17 08:23:29;;;;;;;1.20;1.08;;;;;;;2.77;100.00;100672.06;5071668;28;20607;-68
2021/11/17 08:25:56;;;;;;;1.42;1.25;;;;;;;2.81;100.00;100676.28;5072147;28;20048;-67
2021/11/17 08:28:24;;;;;;;1.95;1.58;;;;;;;2.77;100.00;100673.81;5071620;28;20052;-69
2021/11/17 08:30:52;;;;;;;0.90;0.88;;;;;;;2.72;100.00;100675.63;5071867;28;20494;-68
2021/11/17 08:33:19;;;;;;;;;;;;;;;2.80;100.00;100664.31;5072316;28;20044;-68
2021/11/17 08:35:47;;;;;;;2.33;0.90;;;;;;;2.71;100.00;100664.53;5072113;28;19924;-68
2021/11/17 08:38:17;;;;;;;1.60;1.30;;;;;;;2.77;100.00;100668.66;5071347;28;20048;-68
2021/11/17 08:40:47;;;;;;;1.98;1.60;;;;;;;2.79;100.00;100659.19;5072079;28;20052;-68
2021/11/17 08:43:15;;;;;;;2.15;1.40;;;;;;;2.83;100.00;100664.25;5071744;28;20051;-68
2021/11/17 08:45:44;;;;;;;1.20;1.10;;;;;;;2.78;100.00;100655.78;5071881;28;20059;-68
2021/11/17 08:48:13;;;;;;;1.98;1.50;;;;;;;2.88;100.00;100659.00;5075422;28;20060;-68
2021/11/17 08:50:41;;;;;;;1.45;1.25;;;;;;;2.92;100.00;100658.00;5075577;28;20050;-68
2021/11/17 08:53:10;;;;;;;2.85;1.70;;;;;;;2.94;100.00;100661.41;5075733;28;20057;-68
2021/11/17 08:55:38;;;;;;;2.05;1.65;;;;;;;2.91;100.00;100658.91;5075877;28;20045;-68
2021/11/17 08:58:06;;;;;;;2.20;1.30;;;;;;;3.00;100.00;100657.81;5075898;28;20044;-67
2021/11/17 09:00:33;;;;;;;3.67;1.70;;;;;;;3.02;100.00;100658.63;5075361;28;20513;-67
2021/11/17 09:03:04;;;;;;;2.00;1.55;;;;;;;3.01;100.00;100657.78;5075725;28;20048;-68
2021/11/17 09:05:34;;;;;;;2.20;1.73;;;;;;;2.98;100.00;100649.31;5075094;28;20074;-68
2021/11/17 09:08:03;;;;;;;2.38;1.77;;;;;;;3.02;100.00;100654.34;5075545;28;20066;-68
2021/11/17 09:10:32;;;;;;;3.03;1.90;;;;;;;2.90;100.00;100658.94;5075366;28;20048;-67
2021/11/17 09:12:59;;;;;;;2.47;1.88;;;;;;;2.92;100.00;100655.44;5075080;28;20147;-68
2021/11/17 09:15:29;;;;;;;2.30;1.73;;;;;;;3.04;100.00;100657.72;5075374;28;20119;-68
2021/11/17 09:17:56;;;;;;;1.25;1.15;;;;;;;3.06;100.00;100649.97;5075544;28;20048;-68
2021/11/17 09:20:25;;;;;;;2.10;1.60;;;;;;;2.98;100.00;100647.59;5074970;28;20048;-68
2021/11/17 09:22:53;;;;;;;3.53;1.27;;;;;;;3.07;100.00;100649.09;5074947;28;20053;-68
2021/11/17 09:25:21;;;;;;;2.38;1.65;;;;;;;3.05;100.00;100649.09;5074784;28;20406;-68
2021/11/17 09:27:49;;;;;;;2.55;1.70;;;;;;;3.07;100.00;100648.25;5075681;28;20056;-68
2021/11/17 09:30:19;;;;;;;2.25;1.20;;;;;;;3.06;100.00;100639.69;5074726;28;20059;-68
2021/11/17 09:32:47;;;;;;;2.10;1.60;;;;;;;3.08;100.00;100640.47;5075324;28;20056;-68
2021/11/17 09:35:16;;;;;;;2.00;1.50;;;;;;;2.98;100.00;100642.47;5074965;28;20041;-69
2021/11/17 09:37:47;;;;;;;2.58;1.60;;;;;;;3.09;100.00;100643.91;5074965;28;20044;-68
2021/11/17 09:40:18;;;;;;;1.33;1.23;;;;;;;3.12;100.00;100641.25;5074620;28;20045;-68
2021/11/17 09:42:45;;;;;;;3.80;2.20;;;;;;;3.05;100.00;100638.81;5075117;28;20052;-69
2021/11/17 09:45:13;;;;;;;2.25;1.58;;;;;;;3.05;100.00;100631.13;5074728;28;20055;-68
2021/11/17 09:47:44;;;;;;;3.10;1.60;;;;;;;3.09;100.00;100634.47;5074716;28;20044;-68
2021/11/17 09:50:14;;;;;;;2.47;1.75;;;;;;;3.03;100.00;100621.75;5074676;28;20048;-68
2021/11/17 09:52:48;;;;;;;1.52;1.25;;;;;;;3.08;100.00;100616.50;5074541;28;20053;-68
2021/11/17 09:55:23;;;;;;;3.28;1.90;;;;;;;3.11;100.00;100614.72;5074354;28;20056;-68
2021/11/17 09:57:54;;;;;;;1.50;0.90;;;;;;;3.05;100.00;100612.28;5073934;28;20044;-68
2021/11/17 10:00:24;;;;;;;1.77;1.25;;;;;;;3.03;100.00;100609.78;5074333;28;20059;-68
2021/11/17 10:02:55;;;;;;;2.47;1.33;;;;;;;3.02;100.00;100620.91;5074222;28;20514;-68
2021/11/17 10:05:26;;;;;;;3.78;2.03;;;;;;;3.05;100.00;100604.56;5074069;28;20055;-68
2021/11/17 10:08:18;;;;;;;1.63;1.20;;;;;;;3.06;100.00;100608.84;5074641;28;20051;-68
2021/11/17 10:13:40;;;;;;;2.58;1.70;;;;;;;3.10;100.00;100612.16;5074095;28;20406;-68
2021/11/17 10:16:07;;;;;;;2.33;1.70;;;;;;;3.15;100.00;100610.31;5074458;28;20055;-68
2021/11/17 10:18:39;;;;;;;1.52;1.40;;;;;;;3.10;100.00;100600.16;5074144;28;20044;-68
2021/11/17 10:21:11;;;;;;;4.70;1.80;;;;;;;3.13;100.00;100605.19;5074088;28;20053;-68
2021/11/17 10:24:06;;;;;;;4.00;2.42;;;;;;;3.14;100.00;100588.91;5074591;28;20049;-68
2021/11/17 10:26:45;;;;;;;2.47;1.80;;;;;;;3.10;100.00;100596.75;5073622;28;20379;-69
2021/11/17 10:29:26;;;;;;;1.80;1.35;;;;;;;3.13;100.00;100588.94;5073734;28;20079;-68
2021/11/17 10:31:57;;;;;;;2.67;2.10;;;;;;;3.13;100.00;100587.22;5073966;28;20048;-69
2021/11/17 10:34:28;;;;;;;10.68;2.40;;;;;;;3.13;100.00;100582.06;5073780;28;20387;-69
2021/11/17 10:37:01;;;;;;;3.10;2.13;;;;;;;3.14;100.00;100580.38;5073741;28;20072;-68
2021/11/17 10:39:42;;;;;;;3.70;1.85;;;;;;;3.13;100.00;100582.06;5073735;28;20051;-68
2021/11/17 10:42:14;;;;;;;2.42;1.95;;;;;;;3.14;100.00;100577.78;5073841;28;20056;-68
2021/11/17 10:44:48;;;;;;;2.25;1.73;;;;;;;3.15;100.00;100576.91;5073883;28;20102;-68
2021/11/17 10:47:25;;;;;;;2.25;2.03;;;;;;;3.10;100.00;100574.44;5073579;28;20102;-69
2021/11/17 10:49:56;;;;;;;1.63;1.30;;;;;;;3.11;100.00;100568.44;5073636;28;20055;-69
2021/11/17 10:52:27;;;;;;;1.60;1.50;;;;;;;3.04;100.00;100566.91;5073244;28;20044;-69
2021/11/17 10:54:57;;;;;;;3.13;1.58;;;;;;;3.20;100.00;100567.34;5073693;28;20449;-68
2021/11/17 10:57:27;;;;;;;3.05;1.85;;;;;;;3.13;100.00;100558.94;5073119;28;20048;-69
2021/11/17 10:59:56;;;;;;;2.58;1.40;;;;;;;3.16;100.00;100556.31;5073469;28;20049;-68
2021/11/17 11:02:25;;;;;;;4.03;1.88;;;;;;;3.11;100.00;100550.44;5072955;28;20041;-68
2021/11/17 11:04:57;;;;;;;2.03;1.50;;;;;;;3.18;100.00;100556.25;5072948;28;20047;-69
2021/11/17 11:07:31;;;;;;;3.25;1.83;;;;;;;3.17;100.00;100547.69;5072881;28;20049;-68
2021/11/17 11:10:05;;;;;;;2.50;1.42;;;;;;;3.12;100.00;100546.97;5073327;28;20049;-68
2021/11/17 11:12:32;;;;;;;0.95;0.80;;;;;;;3.09;100.00;100539.34;5072702;28;20057;-69
2021/11/17 11:15:03;;;;;;;2.97;1.48;;;;;;;3.16;100.00;100540.00;5073347;28;20049;-68
2021/11/17 11:17:34;;;;;;;2.38;1.60;;;;;;;3.18;100.00;100538.25;5073041;28;20075;-69
2021/11/17 11:20:37;;;;;;;1.55;1.27;;;;;;;3.19;100.00;100537.38;5072942;28;20383;-68
2021/11/17 11:23:21;;;;;;;1.27;1.17;;;;;;;3.22;100.00;100532.13;5072735;28;20059;-69
2021/11/17 11:26:15;;;;;;;2.25;1.45;;;;;;;3.28;100.00;100532.78;5072678;28;20047;-68
2021/11/17 11:28:58;;;;;;;1.35;1.10;;;;;;;3.23;100.00;100532.06;5072720;28;20056;-68
2021/11/17 11:31:36;;;;;;;1.85;1.35;;;;;;;3.21;100.00;100523.59;5072125;28;20055;-68
2021/11/17 11:34:43;;;;;;;4.18;1.52;;;;;;;3.26;100.00;100519.16;5072840;28;20049;-68
2021/11/17 11:37:34;;;;;;;4.00;1.60;;;;;;;3.19;100.00;100516.81;5072590;28;20057;-68
2021/11/17 11:40:11;;;;;;;1.15;1.05;;;;;;;3.23;100.00;100508.09;5072436;28;20048;-68
2021/11/17 11:43:10;;;;;;;4.40;1.42;;;;;;;3.25;100.00;100511.47;5072696;28;20063;-68
2021/11/17 11:45:48;;;;;;;1.45;1.35;;;;;;;3.21;100.00;100510.72;5056925;28;20047;-68
2021/11/17 11:48:56;;;;;;;2.15;1.13;;;;;;;3.25;100.00;100511.47;5072479;28;20058;-68
2021/11/17 11:51:48;;;;;;;3.00;1.55;;;;;;;3.30;100.00;100508.78;5037872;28;20049;-67
2021/11/17 11:54:20;;;;;;;1.40;0.95;;;;;;;3.43;100.00;100505.78;5072381;28;20056;-67
2021/11/17 11:56:51;;;;;;;3.17;1.75;;;;;;;3.42;100.00;100508.44;5072307;28;20040;-67
2021/11/17 11:59:23;;;;;;;1.85;1.17;;;;;;;3.32;100.00;100507.84;5072343;28;20044;-67
2021/11/17 12:02:04;;;;;;;1.40;1.20;;;;;;;3.36;100.00;100508.59;5072567;28;20102;-67
2021/11/17 12:04:31;;;;;;;1.20;1.00;;;;;;;3.37;100.00;100500.00;5072194;28;20052;-69
2021/11/17 12:07:04;;;;;;;1.85;1.15;;;;;;;3.27;100.00;100502.84;5072263;28;20053;-68
2021/11/17 12:09:34;;;;;;;1.77;1.25;;;;;;;3.24;100.00;100505.50;5072238;28;20048;-69
2021/11/17 12:12:07;;;;;;;1.92;1.40;;;;;;;3.27;100.00;100502.00;5072353;28;20048;-66
2021/11/17 12:14:48;;;;;;;0.93;0.90;;;;;;;3.23;100.00;100495.25;5072249;28;20482;-66
2021/11/17 12:17:21;;;;;;;2.42;1.70;;;;;;;3.28;100.00;100493.38;5071672;28;20509;-66
2021/11/17 12:19:52;;;;;;;1.20;0.95;;;;;;;3.31;100.00;100498.44;5072035;28;20045;-67
2021/11/17 12:22:38;;;;;;;1.20;1.08;;;;;;;3.32;100.00;100495.00;5071643;28;20044;-66
2021/11/17 12:25:14;;;;;;;1.10;1.00;;;;;;;3.25;100.00;100493.47;5071838;28;20135;-70
2021/11/17 12:27:42;;;;;;;2.15;1.35;;;;;;;3.24;100.00;100489.22;5072271;28;20048;-69
2021/11/17 12:30:13;;;;;;;1.02;0.93;;;;;;;3.22;100.00;100488.44;5071716;28;20048;-69
2021/11/17 12:32:50;;;;;;;1.52;1.08;;;;;;;3.19;100.00;100488.53;5071885;28;20430;-69
2021/11/17 12:35:24;;;;;;;1.77;1.10;;;;;;;3.31;100.00;100484.75;5071853;28;20052;-69
2021/11/17 12:37:56;;;;;;;2.38;1.20;;;;;;;3.27;100.00;100487.41;5071737;28;20387;-69
2021/11/17 12:40:38;;;;;;;1.70;1.25;;;;;;;3.26;100.00;100483.16;5071588;28;20054;-67
2021/11/17 12:43:07;;;;;;;2.42;1.00;;;;;;;3.13;100.00;100481.81;5071720;28;20048;-67
2021/11/17 12:45:38;;;;;;;1.40;0.90;;;;;;;3.11;100.00;100486.16;5072001;28;20083;-67
2021/11/17 12:48:11;;;;;;;1.38;1.20;;;;;;;3.09;100.00;100482.78;5071881;28;20045;-66
2021/11/17 12:50:47;;;;;;;3.75;1.70;;;;;;;3.09;100.00;100492.25;5071530;28;20044;-66
2021/11/17 12:53:20;;;;;;;4.13;1.35;;;;;;;3.14;100.00;100475.78;5071751;28;20049;-67
2021/11/17 12:56:00;;;;;;;1.73;1.20;;;;;;;3.10;100.00;100478.50;5071662;28;20305;-67
2021/11/17 12:58:37;;;;;;;1.05;0.93;;;;;;;3.15;100.00;100480.03;5071656;28;20069;-67
2021/11/17 13:01:20;;;;;;;2.42;1.00;;;;;;;3.20;100.00;100482.47;5071822;28;20049;-67
2021/11/17 13:04:05;;;;;;;1.75;0.98;;;;;;;3.12;100.00;100477.56;5071517;28;20048;-67
2021/11/17 13:06:34;;;;;;;1.77;1.20;;;;;;;3.15;100.00;100485.19;5071605;28;20131;-66
2021/11/17 13:09:13;;;;;;;1.08;0.85;;;;;;;3.14;100.00;100478.38;5071458;28;20053;-66
2021/11/17 13:12:18;;;;;;;0.85;0.85;;;;;;;3.14;100.00;100473.22;5071461;28;20510;-66
2021/11/17 13:15:07;;;;;;;4.80;1.20;;;;;;;3.09;100.00;100476.81;4989735;28;20057;-67
2021/11/17 13:17:39;;;;;;;1.38;1.08;;;;;;;3.14;100.00;100469.81;5064851;28;20051;-67
2021/11/17 13:20:39;;;;;;;1.05;0.95;;;;;;;3.02;100.00;100474.41;5071393;28;20102;-66
2021/11/17 13:23:26;;;;;;;1.67;1.10;;;;;;;3.07;100.00;100465.72;5071685;28;20052;-67
2021/11/17 13:25:57;;;;;;;1.17;0.80;;;;;;;3.06;100.00;100459.75;5071562;28;20072;-69
2021/11/17 13:28:40;;;;;;;1.58;1.05;;;;;;;3.04;100.00;100464.94;5071272;28;20045;-69
2021/11/17 13:31:34;;;;;;;1.02;0.98;;;;;;;3.01;100.00;100459.03;5071666;28;20056;-69
2021/11/17 13:34:04;;;;;;;1.38;0.90;;;;;;;3.01;100.00;100457.31;5073212;28;20064;-69
2021/11/17 13:36:47;;;;;;;2.13;1.00;;;;;;;2.97;100.00;100455.69;5074900;28;20047;-69
2021/11/17 13:39:16;;;;;;;1.35;1.08;;;;;;;2.99;100.00;100459.06;5074846;28;20053;-68
2021/11/17 13:41:46;;;;;;;1.63;1.30;;;;;;;2.97;100.00;100457.44;5074826;28;20505;-69
2021/11/17 13:44:16;;;;;;;0.98;0.90;;;;;;;2.93;100.00;100456.69;5074853;28;20310;-68
2021/11/17 13:46:56;;;;;;;1.95;1.20;;;;;;;2.93;100.00;100450.69;5074839;28;20054;-68
2021/11/17 13:49:24;;;;;;;2.35;1.30;;;;;;;2.99;100.00;100455.66;5074468;28;20567;-69
2021/11/17 13:51:51;;;;;;;1.00;0.90;;;;;;;2.99;100.00;100451.38;5074831;28;20052;-68
2021/11/17 13:54:18;;;;;;;1.40;1.10;;;;;;;3.01;100.00;100452.16;5074324;28;20052;-69
2021/11/17 13:56:46;;;;;;;;;;;;;;;2.93;100.00;100443.84;5074986;28;20040;-68
2021/11/17 13:59:13;;;;;;;1.05;0.95;;;;;;;2.92;100.00;100441.31;5074492;28;19924;-69
2021/11/17 14:01:41;;;;;;;1.25;1.05;;;;;;;2.94;100.00;100431.81;5074561;28;20055;-68
2021/11/17 14:04:07;;;;;;;;;;;;;;;3.02;100.00;100440.16;5075058;28;20060;-69
2021/11/17 14:06:34;;;;;;;0.70;0.65;;;;;;;3.01;100.00;100434.19;5074604;28;19924;-68
2021/11/17 14:09:01;;;;;;;0.73;0.73;;;;;;;2.90;100.00;100432.78;5074631;28;20048;-68
2021/11/17 14:11:30;;;;;;;1.58;1.20;;;;;;;2.93;100.00;100437.84;5074291;28;20052;-69
2021/11/17 14:13:59;;;;;;;3.05;1.40;;;;;;;2.93;100.00;100435.25;5074044;28;20145;-68
2021/11/17 14:16:26;;;;;;;1.73;0.98;;;;;;;2.92;100.00;100429.28;5074262;28;20098;-69
2021/11/17 14:18:54;;;;;;;0.82;0.82;;;;;;;2.91;100.00;100432.75;5074198;28;20059;-69
2021/11/17 14:21:24;;;;;;;2.55;1.17;;;;;;;2.90;100.00;100430.22;5073722;28;20045;-68
2021/11/17 14:23:51;;;;;;;1.67;1.30;;;;;;;2.97;100.00;100424.84;5074324;28;20056;-69
2021/11/17 14:26:18;;;;;;;2.97;1.50;;;;;;;2.89;100.00;100421.66;5073576;28;20058;-69
2021/11/17 14:28:48;;;;;;;2.90;1.20;;;;;;;2.98;100.00;100423.13;5073883;28;20051;-68
2021/11/17 14:31:21;;;;;;;2.63;1.20;;;;;;;2.95;100.00;100415.50;5073999;28;20052;-69
2021/11/17 14:33:55;;;;;;;2.17;1.10;;;;;;;2.97;100.00;100416.31;5073781;28;20048;-68
2021/11/17 14:36:24;;;;;;;1.30;1.02;;;;;;;2.91;100.00;100419.06;5073817;28;20052;-69